createdAt,value
2023-05-14T00:00:25.458Z,999.04
2023-05-14T00:01:25.275Z,999.09
2023-05-14T00:02:25.310Z,999.05
2023-05-14T00:03:25.294Z,999.06
2023-05-14T00:04:25.277Z,998.99
2023-05-14T00:05:25.369Z,998.99
2023-05-14T00:06:25.221Z,998.98
2023-05-14T00:07:25.187Z,999.01
2023-05-14T00:08:25.190Z,998.97
2023-05-14T00:09:25.185Z,998.95
2023-05-14T00:10:25.371Z,998.91
2023-05-14T00:11:25.166Z,998.90
2023-05-14T00:12:25.143Z,998.88
2023-05-14T00:13:25.120Z,998.90
2023-05-14T00:14:25.116Z,998.93
2023-05-14T00:15:25.123Z,998.93
2023-05-14T00:16:25.189Z,998.92
2023-05-14T00:17:25.134Z,998.92
2023-05-14T00:18:25.132Z,998.92
2023-05-14T00:19:25.065Z,998.84
2023-05-14T00:20:25.351Z,998.91
2023-05-14T00:21:25.039Z,998.88
2023-05-14T00:22:25.032Z,998.85
2023-05-14T00:23:25.018Z,998.80
2023-05-14T00:24:25.016Z,998.82
2023-05-14T00:25:25.018Z,998.84
2023-05-14T00:26:24.997Z,998.80
2023-05-14T00:27:24.990Z,998.81
2023-05-14T00:28:24.963Z,998.78
2023-05-14T00:29:24.977Z,998.79
2023-05-14T00:30:25.237Z,998.79
2023-05-14T00:31:25.019Z,998.80
2023-05-14T00:32:24.971Z,998.70
2023-05-14T00:33:24.923Z,998.73
2023-05-14T00:34:24.929Z,998.75
2023-05-14T00:35:24.900Z,998.76
2023-05-14T00:36:24.898Z,998.68
2023-05-14T00:37:24.873Z,998.73
2023-05-14T00:38:24.866Z,998.69
2023-05-14T00:39:24.879Z,998.66
2023-05-14T00:40:25.198Z,998.65
2023-05-14T00:41:24.845Z,998.67
2023-05-14T00:42:24.838Z,998.60
2023-05-14T00:43:24.818Z,998.62
2023-05-14T00:44:24.842Z,998.60
2023-05-14T00:45:24.810Z,998.63
2023-05-14T00:46:24.808Z,998.58
2023-05-14T00:47:24.774Z,998.63
2023-05-14T00:48:24.784Z,998.61
2023-05-14T00:49:24.750Z,998.60
2023-05-14T00:50:24.991Z,998.64
2023-05-14T00:51:24.728Z,998.60
2023-05-14T00:52:24.720Z,998.55
2023-05-14T00:53:24.756Z,998.58
2023-05-14T00:54:24.696Z,998.63
2023-05-14T00:55:24.690Z,998.61
2023-05-14T00:56:24.671Z,998.62
2023-05-14T00:57:24.678Z,998.60
2023-05-14T00:58:24.668Z,998.64
2023-05-14T00:59:24.645Z,998.63
2023-05-14T01:00:24.854Z,998.63
2023-05-14T01:01:24.711Z,998.62
2023-05-14T01:02:24.693Z,998.62
2023-05-14T01:03:24.688Z,998.63
2023-05-14T01:04:24.606Z,998.63
2023-05-14T01:05:24.571Z,998.60
2023-05-14T01:06:24.565Z,998.58
2023-05-14T01:07:24.574Z,998.62
2023-05-14T01:08:24.540Z,998.60
2023-05-14T01:09:24.532Z,998.61
2023-05-14T01:10:24.753Z,998.59
2023-05-14T01:11:24.533Z,998.59
2023-05-14T01:12:24.509Z,998.57
2023-05-14T01:13:24.495Z,998.52
2023-05-14T01:14:24.479Z,998.58
2023-05-14T01:15:24.467Z,998.57
2023-05-14T01:16:24.493Z,998.56
2023-05-14T01:17:24.709Z,998.55
2023-05-14T01:18:24.521Z,998.50
2023-05-14T01:19:24.422Z,998.53
2023-05-14T01:20:24.638Z,998.58
2023-05-14T01:21:24.435Z,998.57
2023-05-14T01:22:24.385Z,998.56
2023-05-14T01:23:24.386Z,998.58
2023-05-14T01:24:24.368Z,998.57
2023-05-14T01:25:24.381Z,998.59
2023-05-14T01:26:24.360Z,998.55
2023-05-14T01:27:24.335Z,998.55
2023-05-14T01:28:24.323Z,998.55
2023-05-14T01:29:24.342Z,998.56
2023-05-14T01:30:24.675Z,998.53
2023-05-14T01:31:24.341Z,998.59
2023-05-14T01:32:24.338Z,998.51
2023-05-14T01:33:24.272Z,998.56
2023-05-14T01:34:24.271Z,998.55
2023-05-14T01:35:24.274Z,998.56
2023-05-14T01:36:24.241Z,998.55
2023-05-14T01:37:24.232Z,998.54
2023-05-14T01:38:24.220Z,998.55
2023-05-14T01:39:24.231Z,998.57
2023-05-14T01:40:24.558Z,998.59
2023-05-14T01:41:24.219Z,998.57
2023-05-14T01:42:24.171Z,998.56
2023-05-14T01:43:24.206Z,998.56
2023-05-14T01:44:24.167Z,998.58
2023-05-14T01:45:24.150Z,998.56
2023-05-14T01:46:24.208Z,998.58
2023-05-14T01:47:24.141Z,998.52
2023-05-14T01:48:24.112Z,998.54
2023-05-14T01:49:24.120Z,998.50
2023-05-14T01:50:24.213Z,998.52
2023-05-14T01:51:24.083Z,998.54
2023-05-14T01:52:24.067Z,998.57
2023-05-14T01:53:24.064Z,998.57
2023-05-14T01:54:24.055Z,998.58
2023-05-14T01:55:24.047Z,998.51
2023-05-14T01:56:24.024Z,998.56
2023-05-14T01:57:24.023Z,998.52
2023-05-14T01:58:24.018Z,998.55
2023-05-14T01:59:23.999Z,998.55
2023-05-14T02:00:24.400Z,998.50
2023-05-14T02:01:24.048Z,998.50
2023-05-14T02:02:23.986Z,998.51
2023-05-14T02:03:23.974Z,998.54
2023-05-14T02:04:23.970Z,998.46
2023-05-14T02:05:23.926Z,998.52
2023-05-14T02:06:23.922Z,998.49
2023-05-14T02:07:23.919Z,998.48
2023-05-14T02:08:23.921Z,998.43
2023-05-14T02:09:23.886Z,998.42
2023-05-14T02:10:24.148Z,998.45
2023-05-14T02:11:23.878Z,998.39
2023-05-14T02:12:23.865Z,998.39
2023-05-14T02:13:23.842Z,998.34
2023-05-14T02:14:23.959Z,998.44
2023-05-14T02:15:23.823Z,998.39
2023-05-14T02:16:23.866Z,998.40
2023-05-14T02:17:23.833Z,998.37
2023-05-14T02:18:23.797Z,998.40
2023-05-14T02:19:23.776Z,998.39
2023-05-14T02:20:23.950Z,998.38
2023-05-14T02:21:23.774Z,998.40
2023-05-14T02:22:23.771Z,998.37
2023-05-14T02:23:34.219Z,998.34
2023-05-14T02:24:24.730Z,998.31
2023-05-14T02:25:23.718Z,998.34
2023-05-14T02:26:23.726Z,998.38
2023-05-14T02:27:23.717Z,998.34
2023-05-14T02:28:23.679Z,998.41
2023-05-14T02:29:23.678Z,998.35
2023-05-14T02:30:23.907Z,998.35
2023-05-14T02:31:23.731Z,998.39
2023-05-14T02:32:23.786Z,998.32
2023-05-14T02:33:23.740Z,998.35
2023-05-14T02:34:23.619Z,998.36
2023-05-14T02:35:23.629Z,998.34
2023-05-14T02:36:23.622Z,998.39
2023-05-14T02:37:23.591Z,998.35
2023-05-14T02:38:23.577Z,998.35
2023-05-14T02:39:23.589Z,998.31
2023-05-14T02:40:23.789Z,998.32
2023-05-14T02:41:23.555Z,998.30
2023-05-14T02:42:23.555Z,998.37
2023-05-14T02:43:23.525Z,998.37
2023-05-14T02:44:23.512Z,998.29
2023-05-14T02:45:23.557Z,998.29
2023-05-14T02:46:23.539Z,998.28
2023-05-14T02:47:23.546Z,998.24
2023-05-14T02:48:23.476Z,998.31
2023-05-14T02:49:23.483Z,998.28
2023-05-14T02:50:23.683Z,998.28
2023-05-14T02:51:23.444Z,998.27
2023-05-14T02:52:23.430Z,998.29
2023-05-14T02:53:23.427Z,998.28
2023-05-14T02:54:23.431Z,998.27
2023-05-14T02:55:23.402Z,998.22
2023-05-14T02:56:23.385Z,998.24
2023-05-14T02:57:23.375Z,998.26
2023-05-14T02:58:28.226Z,998.27
2023-05-14T02:59:24.370Z,998.23
2023-05-14T03:00:23.599Z,998.23
2023-05-14T03:01:23.412Z,998.23
2023-05-14T03:02:23.336Z,998.20
2023-05-14T03:03:23.378Z,998.21
2023-05-14T03:04:23.317Z,998.19
2023-05-14T03:05:23.284Z,998.16
2023-05-14T03:06:23.278Z,998.17
2023-05-14T03:07:23.277Z,998.17
2023-05-14T03:08:23.277Z,998.18
2023-05-14T03:09:23.262Z,998.14
2023-05-14T03:10:23.557Z,998.15
2023-05-14T03:11:23.226Z,998.17
2023-05-14T03:12:23.214Z,998.17
2023-05-14T03:13:23.222Z,998.21
2023-05-14T03:14:23.190Z,998.16
2023-05-14T03:15:23.181Z,998.16
2023-05-14T03:16:23.228Z,998.17
2023-05-14T03:17:23.250Z,998.19
2023-05-14T03:18:23.160Z,998.23
2023-05-14T03:19:23.139Z,998.22
2023-05-14T03:20:23.319Z,998.21
2023-05-14T03:21:23.119Z,998.19
2023-05-14T03:22:23.119Z,998.19
2023-05-14T03:23:23.093Z,998.23
2023-05-14T03:24:23.081Z,998.21
2023-05-14T03:25:23.082Z,998.20
2023-05-14T03:26:23.074Z,998.18
2023-05-14T03:27:23.074Z,998.29
2023-05-14T03:28:23.033Z,998.24
2023-05-14T03:29:23.039Z,998.23
2023-05-14T03:30:23.214Z,998.22
2023-05-14T03:31:23.110Z,998.22
2023-05-14T03:32:23.038Z,998.22
2023-05-14T03:33:22.998Z,998.17
2023-05-14T03:34:22.975Z,998.16
2023-05-14T03:35:22.923Z,998.17
2023-05-14T03:36:22.917Z,998.16
2023-05-14T03:37:22.896Z,998.18
2023-05-14T03:38:22.890Z,998.18
2023-05-14T03:39:22.869Z,998.19
2023-05-14T03:40:23.021Z,998.16
2023-05-14T03:41:23.602Z,998.21
2023-05-14T03:42:22.893Z,998.18
2023-05-14T03:43:22.890Z,998.21
2023-05-14T03:44:22.871Z,998.19
2023-05-14T03:45:22.886Z,998.20
2023-05-14T03:46:22.860Z,998.16
2023-05-14T03:47:22.872Z,998.19
2023-05-14T03:48:22.894Z,998.15
2023-05-14T03:49:22.831Z,998.15
2023-05-14T03:50:23.025Z,998.12
2023-05-14T03:51:22.808Z,998.09
2023-05-14T03:52:22.785Z,998.13
2023-05-14T03:53:22.801Z,998.13
2023-05-14T03:54:22.771Z,998.17
2023-05-14T03:55:22.811Z,998.17
2023-05-14T03:56:22.753Z,998.15
2023-05-14T03:57:22.699Z,998.20
2023-05-14T03:58:22.667Z,998.14
2023-05-14T03:59:22.670Z,998.21
2023-05-14T04:00:22.983Z,998.18
2023-05-14T04:01:22.699Z,998.13
2023-05-14T04:02:22.707Z,998.07
2023-05-14T04:03:22.774Z,998.11
2023-05-14T04:04:22.697Z,998.09
2023-05-14T04:05:22.662Z,998.06
2023-05-14T04:06:22.639Z,998.06
2023-05-14T04:07:22.582Z,998.13
2023-05-14T04:08:22.558Z,998.16
2023-05-14T04:09:22.569Z,998.08
2023-05-14T04:10:22.856Z,998.15
2023-05-14T04:11:22.527Z,998.15
2023-05-14T04:12:22.509Z,998.12
2023-05-14T04:13:22.521Z,998.10
2023-05-14T04:14:22.513Z,998.09
2023-05-14T04:15:22.498Z,998.17
2023-05-14T04:16:22.575Z,998.12
2023-05-14T04:17:22.464Z,998.18
2023-05-14T04:18:22.465Z,998.14
2023-05-14T04:19:22.494Z,998.18
2023-05-14T04:20:22.550Z,998.16
2023-05-14T04:21:22.425Z,998.22
2023-05-14T04:22:22.432Z,998.21
2023-05-14T04:23:22.417Z,998.13
2023-05-14T04:24:22.404Z,998.17
2023-05-14T04:25:22.377Z,998.22
2023-05-14T04:26:22.362Z,998.15
2023-05-14T04:27:22.381Z,998.15
2023-05-14T04:28:22.362Z,998.20
2023-05-14T04:29:22.335Z,998.20
2023-05-14T04:30:22.527Z,998.15
2023-05-14T04:31:22.364Z,998.15
2023-05-14T04:32:22.341Z,998.18
2023-05-14T04:33:22.331Z,998.20
2023-05-14T04:34:22.277Z,998.20
2023-05-14T04:35:24.712Z,998.19
2023-05-14T04:36:22.276Z,998.25
2023-05-14T04:37:22.390Z,998.18
2023-05-14T04:38:22.229Z,998.21
2023-05-14T04:39:22.226Z,998.17
2023-05-14T04:40:22.527Z,998.20
2023-05-14T04:41:22.220Z,998.18
2023-05-14T04:42:22.189Z,998.23
2023-05-14T04:43:22.184Z,998.25
2023-05-14T04:44:22.198Z,998.25
2023-05-14T04:45:22.161Z,998.23
2023-05-14T04:46:22.197Z,998.24
2023-05-14T04:47:22.179Z,998.25
2023-05-14T04:48:22.142Z,998.22
2023-05-14T04:49:22.117Z,998.22
2023-05-14T04:50:22.544Z,998.21
2023-05-14T04:51:22.151Z,998.21
2023-05-14T04:52:22.082Z,998.21
2023-05-14T04:53:22.108Z,998.27
2023-05-14T04:54:22.140Z,998.30
2023-05-14T04:55:22.093Z,998.33
2023-05-14T04:56:22.072Z,998.26
2023-05-14T04:57:22.032Z,998.25
2023-05-14T04:58:22.056Z,998.26
2023-05-14T04:59:22.037Z,998.28
2023-05-14T05:00:22.501Z,998.30
2023-05-14T05:01:22.066Z,998.30
2023-05-14T05:02:22.021Z,998.28
2023-05-14T05:03:22.091Z,998.28
2023-05-14T05:04:21.969Z,998.25
2023-05-14T05:05:21.974Z,998.27
2023-05-14T05:06:21.957Z,998.28
2023-05-14T05:07:21.939Z,998.26
2023-05-14T05:08:21.996Z,998.25
2023-05-14T05:09:21.935Z,998.30
2023-05-14T05:10:22.106Z,998.26
2023-05-14T05:11:21.885Z,998.32
2023-05-14T05:12:21.897Z,998.31
2023-05-14T05:13:21.863Z,998.28
2023-05-14T05:14:21.882Z,998.26
2023-05-14T05:15:21.881Z,998.24
2023-05-14T05:16:21.882Z,998.28
2023-05-14T05:17:22.805Z,998.29
2023-05-14T05:18:21.835Z,998.24
2023-05-14T05:19:29.164Z,998.25
2023-05-14T05:20:23.020Z,998.28
2023-05-14T05:21:21.786Z,998.23
2023-05-14T05:22:21.790Z,998.18
2023-05-14T05:23:21.786Z,998.22
2023-05-14T05:24:21.770Z,998.21
2023-05-14T05:25:21.741Z,998.19
2023-05-14T05:26:21.730Z,998.22
2023-05-14T05:27:21.729Z,998.23
2023-05-14T05:28:21.726Z,998.23
2023-05-14T05:29:21.698Z,998.24
2023-05-14T05:30:21.923Z,998.27
2023-05-14T05:31:21.718Z,998.24
2023-05-14T05:32:21.683Z,998.22
2023-05-14T05:33:21.673Z,998.29
2023-05-14T05:34:21.654Z,998.29
2023-05-14T05:35:21.634Z,998.21
2023-05-14T05:36:21.700Z,998.22
2023-05-14T05:37:21.648Z,998.22
2023-05-14T05:38:21.639Z,998.17
2023-05-14T05:39:21.614Z,998.23
2023-05-14T05:40:21.738Z,998.19
2023-05-14T05:41:21.586Z,998.20
2023-05-14T05:42:21.590Z,998.21
2023-05-14T05:43:21.557Z,998.14
2023-05-14T05:44:21.556Z,998.16
2023-05-14T05:45:21.566Z,998.19
2023-05-14T05:46:21.601Z,998.19
2023-05-14T05:47:21.587Z,998.22
2023-05-14T05:48:21.533Z,998.23
2023-05-14T05:49:21.482Z,998.24
2023-05-14T05:50:21.657Z,998.22
2023-05-14T05:51:21.477Z,998.21
2023-05-14T05:52:21.472Z,998.20
2023-05-14T05:53:21.443Z,998.17
2023-05-14T05:54:21.445Z,998.22
2023-05-14T05:55:21.476Z,998.21
2023-05-14T05:56:21.429Z,998.23
2023-05-14T05:57:21.399Z,998.19
2023-05-14T05:58:21.390Z,998.22
2023-05-14T05:59:21.380Z,998.23
2023-05-14T06:00:21.527Z,998.25
2023-05-14T06:01:21.380Z,998.24
2023-05-14T06:02:21.465Z,998.21
2023-05-14T06:03:21.379Z,998.25
2023-05-14T06:04:21.335Z,998.25
2023-05-14T06:05:21.367Z,998.23
2023-05-14T06:06:21.333Z,998.27
2023-05-14T06:07:21.305Z,998.28
2023-05-14T06:08:21.292Z,998.22
2023-05-14T06:09:21.267Z,998.27
2023-05-14T06:10:21.462Z,998.27
2023-05-14T06:11:21.246Z,998.27
2023-05-14T06:12:21.250Z,998.26
2023-05-14T06:13:21.244Z,998.27
2023-05-14T06:14:21.237Z,998.25
2023-05-14T06:15:21.255Z,998.27
2023-05-14T06:16:21.372Z,998.27
2023-05-14T06:17:21.347Z,998.24
2023-05-14T06:18:21.183Z,998.33
2023-05-14T06:19:21.226Z,998.33
2023-05-14T06:20:21.357Z,998.35
2023-05-14T06:21:21.145Z,998.27
2023-05-14T06:22:21.132Z,998.26
2023-05-14T06:23:21.130Z,998.35
2023-05-14T06:24:21.137Z,998.33
2023-05-14T06:25:21.108Z,998.31
2023-05-14T06:26:21.097Z,998.31
2023-05-14T06:27:21.076Z,998.34
2023-05-14T06:28:21.080Z,998.30
2023-05-14T06:29:21.081Z,998.32
2023-05-14T06:30:21.180Z,998.34
2023-05-14T06:31:21.057Z,998.36
2023-05-14T06:32:21.226Z,998.27
2023-05-14T06:33:21.032Z,998.36
2023-05-14T06:34:21.030Z,998.33
2023-05-14T06:35:20.995Z,998.33
2023-05-14T06:36:20.999Z,998.30
2023-05-14T06:37:21.018Z,998.28
2023-05-14T06:38:21.035Z,998.21
2023-05-14T06:39:20.952Z,998.25
2023-05-14T06:40:21.237Z,998.22
2023-05-14T06:41:20.927Z,998.24
2023-05-14T06:42:20.923Z,998.22
2023-05-14T06:43:20.977Z,998.21
2023-05-14T06:44:20.899Z,998.24
2023-05-14T06:45:20.887Z,998.16
2023-05-14T06:46:20.872Z,998.19
2023-05-14T06:47:20.877Z,998.22
2023-05-14T06:48:21.008Z,998.21
2023-05-14T06:49:20.858Z,998.18
2023-05-14T06:50:20.873Z,998.22
2023-05-14T06:51:20.856Z,998.14
2023-05-14T06:52:20.834Z,998.23
2023-05-14T06:53:20.806Z,998.20
2023-05-14T06:54:20.794Z,998.22
2023-05-14T06:55:20.782Z,998.25
2023-05-14T06:56:20.788Z,998.20
2023-05-14T06:57:20.788Z,998.20
2023-05-14T06:58:20.753Z,998.21
2023-05-14T06:59:20.749Z,998.17
2023-05-14T07:00:20.749Z,998.18
2023-05-14T07:01:20.780Z,998.16
2023-05-14T07:02:20.764Z,998.16
2023-05-14T07:03:20.700Z,998.13
2023-05-14T07:04:20.783Z,998.15
2023-05-14T07:05:20.678Z,998.15
2023-05-14T07:06:20.680Z,998.13
2023-05-14T07:07:20.738Z,998.11
2023-05-14T07:08:20.653Z,998.14
2023-05-14T07:09:20.638Z,998.12
2023-05-14T07:10:20.643Z,998.11
2023-05-14T07:11:20.626Z,998.09
2023-05-14T07:12:20.602Z,998.02
2023-05-14T07:13:20.590Z,998.02
2023-05-14T07:14:20.579Z,998.05
2023-05-14T07:15:20.612Z,998.06
2023-05-14T07:16:20.579Z,998.05
2023-05-14T07:17:20.662Z,998.04
2023-05-14T07:18:20.547Z,997.99
2023-05-14T07:19:20.531Z,997.99
2023-05-14T07:20:20.543Z,998.02
2023-05-14T07:21:20.513Z,997.96
2023-05-14T07:22:20.499Z,997.93
2023-05-14T07:23:20.486Z,997.94
2023-05-14T07:24:20.486Z,997.96
2023-05-14T07:25:21.360Z,997.94
2023-05-14T07:26:20.464Z,997.91
2023-05-14T07:27:20.469Z,997.89
2023-05-14T07:28:20.436Z,997.95
2023-05-14T07:29:20.444Z,997.92
2023-05-14T07:30:20.434Z,997.91
2023-05-14T07:31:20.494Z,997.93
2023-05-14T07:32:20.389Z,997.92
2023-05-14T07:33:20.376Z,997.91
2023-05-14T07:34:20.399Z,997.90
2023-05-14T07:35:20.373Z,997.85
2023-05-14T07:36:20.352Z,997.89
2023-05-14T07:37:21.021Z,997.82
2023-05-14T07:38:20.341Z,997.83
2023-05-14T07:39:20.335Z,997.80
2023-05-14T07:40:20.308Z,997.80
2023-05-14T07:41:20.303Z,997.80
2023-05-14T07:42:34.586Z,997.80
2023-05-14T07:43:21.317Z,997.81
2023-05-14T07:44:20.289Z,997.81
2023-05-14T07:45:20.255Z,997.77
2023-05-14T07:46:20.249Z,997.73
2023-05-14T07:47:20.280Z,997.76
2023-05-14T07:48:20.301Z,997.76
2023-05-14T07:49:20.213Z,997.79
2023-05-14T07:50:20.208Z,997.71
2023-05-14T07:51:20.204Z,997.75
2023-05-14T07:52:20.186Z,997.79
2023-05-14T07:53:20.183Z,997.76
2023-05-14T07:54:20.166Z,997.77
2023-05-14T07:55:20.146Z,997.76
2023-05-14T07:56:20.142Z,997.72
2023-05-14T07:57:20.161Z,997.73
2023-05-14T07:58:20.141Z,997.78
2023-05-14T07:59:20.106Z,997.74
2023-05-14T08:00:20.134Z,997.73
2023-05-14T08:01:20.095Z,997.72
2023-05-14T08:02:20.133Z,997.68
2023-05-14T08:03:20.145Z,997.71
2023-05-14T08:04:20.109Z,997.73
2023-05-14T08:05:20.042Z,997.74
2023-05-14T08:06:20.038Z,997.69
2023-05-14T08:07:20.043Z,997.69
2023-05-14T08:08:20.020Z,997.69
2023-05-14T08:09:19.997Z,997.66
2023-05-14T08:10:20.137Z,997.68
2023-05-14T08:11:20.031Z,997.63
2023-05-14T08:12:19.984Z,997.66
2023-05-14T08:13:19.957Z,997.69
2023-05-14T08:14:19.954Z,997.64
2023-05-14T08:15:19.937Z,997.62
2023-05-14T08:16:19.985Z,997.62
2023-05-14T08:17:19.912Z,997.64
2023-05-14T08:18:19.906Z,997.58
2023-05-14T08:19:20.005Z,997.60
2023-05-14T08:20:19.928Z,997.63
2023-05-14T08:21:19.890Z,997.58
2023-05-14T08:22:19.891Z,997.57
2023-05-14T08:23:19.856Z,997.55
2023-05-14T08:24:19.852Z,997.64
2023-05-14T08:25:19.863Z,997.52
2023-05-14T08:26:19.877Z,997.58
2023-05-14T08:27:19.810Z,997.60
2023-05-14T08:28:19.811Z,997.55
2023-05-14T08:29:19.790Z,997.54
2023-05-14T08:30:19.802Z,997.50
2023-05-14T08:31:19.785Z,997.44
2023-05-14T08:32:23.797Z,997.48
2023-05-14T08:33:19.754Z,997.52
2023-05-14T08:34:19.737Z,997.48
2023-05-14T08:35:19.740Z,997.45
2023-05-14T08:36:19.731Z,997.51
2023-05-14T08:37:19.703Z,997.46
2023-05-14T08:38:19.705Z,997.50
2023-05-14T08:39:19.709Z,997.46
2023-05-14T08:40:19.701Z,997.45
2023-05-14T08:41:19.664Z,997.41
2023-05-14T08:42:19.667Z,997.42
2023-05-14T08:43:19.648Z,997.43
2023-05-14T08:44:19.654Z,997.39
2023-05-14T08:45:19.621Z,997.39
2023-05-14T08:46:19.610Z,997.38
2023-05-14T08:47:19.597Z,997.30
2023-05-14T08:48:19.770Z,997.29
2023-05-14T08:49:19.589Z,997.31
2023-05-14T08:50:22.406Z,997.30
2023-05-14T08:51:19.558Z,997.30
2023-05-14T08:52:19.552Z,997.30
2023-05-14T08:53:19.544Z,997.27
2023-05-14T08:54:19.546Z,997.30
2023-05-14T08:55:19.514Z,997.29
2023-05-14T08:56:19.508Z,997.31
2023-05-14T08:57:19.493Z,997.27
2023-05-14T08:58:19.500Z,997.27
2023-05-14T08:59:19.479Z,997.30
2023-05-14T09:00:19.474Z,997.19
2023-05-14T09:01:19.461Z,997.25
2023-05-14T09:02:19.446Z,997.28
2023-05-14T09:03:19.498Z,997.24
2023-05-14T09:04:19.502Z,997.23
2023-05-14T09:05:19.404Z,997.24
2023-05-14T09:06:19.396Z,997.21
2023-05-14T09:07:19.406Z,997.23
2023-05-14T09:08:19.397Z,997.27
2023-05-14T09:09:19.372Z,997.23
2023-05-14T09:10:19.374Z,997.19
2023-05-14T09:11:19.344Z,997.21
2023-05-14T09:12:19.359Z,997.19
2023-05-14T09:13:19.321Z,997.24
2023-05-14T09:14:19.316Z,997.20
2023-05-14T09:15:19.302Z,997.21
2023-05-14T09:16:19.325Z,997.13
2023-05-14T09:17:19.301Z,997.21
2023-05-14T09:18:19.272Z,997.17
2023-05-14T09:19:19.715Z,997.18
2023-05-14T09:20:19.248Z,997.15
2023-05-14T09:21:19.252Z,997.18
2023-05-14T09:22:19.249Z,997.19
2023-05-14T09:23:19.225Z,997.17
2023-05-14T09:24:19.208Z,997.14
2023-05-14T09:25:19.229Z,997.12
2023-05-14T09:26:19.204Z,997.13
2023-05-14T09:27:19.173Z,997.15
2023-05-14T09:28:19.175Z,997.13
2023-05-14T09:29:19.161Z,997.07
2023-05-14T09:30:19.159Z,997.05
2023-05-14T09:31:19.203Z,997.08
2023-05-14T09:32:19.115Z,997.08
2023-05-14T09:33:19.111Z,997.09
2023-05-14T09:34:19.094Z,996.98
2023-05-14T09:35:19.111Z,997.06
2023-05-14T09:36:19.085Z,997.01
2023-05-14T09:37:19.079Z,997.02
2023-05-14T09:38:19.055Z,996.94
2023-05-14T09:39:19.051Z,997.00
2023-05-14T09:40:19.064Z,996.96
2023-05-14T09:41:19.031Z,996.96
2023-05-14T09:42:19.016Z,996.96
2023-05-14T09:43:19.004Z,996.92
2023-05-14T09:44:18.993Z,996.91
2023-05-14T09:45:19.001Z,996.88
2023-05-14T09:46:19.000Z,996.85
2023-05-14T09:47:19.050Z,996.91
2023-05-14T09:48:18.982Z,996.89
2023-05-14T09:49:18.957Z,996.92
2023-05-14T09:50:18.968Z,996.94
2023-05-14T09:51:18.933Z,996.89
2023-05-14T09:52:18.904Z,996.95
2023-05-14T09:53:18.905Z,996.93
2023-05-14T09:54:18.910Z,996.91
2023-05-14T09:55:18.883Z,996.89
2023-05-14T09:56:18.874Z,996.86
2023-05-14T09:57:18.858Z,996.88
2023-05-14T09:58:18.850Z,996.84
2023-05-14T09:59:18.852Z,996.84
2023-05-14T10:00:18.836Z,996.77
2023-05-14T10:01:18.870Z,996.75
2023-05-14T10:02:18.816Z,996.76
2023-05-14T10:03:20.002Z,996.73
2023-05-14T10:04:18.838Z,996.69
2023-05-14T10:05:18.779Z,996.72
2023-05-14T10:06:18.766Z,996.68
2023-05-14T10:07:18.752Z,996.67
2023-05-14T10:08:18.780Z,996.67
2023-05-14T10:09:18.749Z,996.67
2023-05-14T10:10:18.721Z,996.63
2023-05-14T10:11:18.725Z,996.64
2023-05-14T10:12:18.701Z,996.66
2023-05-14T10:13:18.727Z,996.66
2023-05-14T10:14:18.783Z,996.72
2023-05-14T10:15:18.673Z,996.69
2023-05-14T10:16:18.679Z,996.66
2023-05-14T10:17:18.785Z,996.64
2023-05-14T10:18:18.736Z,996.64
2023-05-14T10:19:18.692Z,996.64
2023-05-14T10:20:18.628Z,996.64
2023-05-14T10:21:18.609Z,996.62
2023-05-14T10:22:18.608Z,996.59
2023-05-14T10:23:18.605Z,996.61
2023-05-14T10:24:18.566Z,996.63
2023-05-14T10:25:18.579Z,996.59
2023-05-14T10:26:18.566Z,996.57
2023-05-14T10:27:18.573Z,996.54
2023-05-14T10:28:18.524Z,996.55
2023-05-14T10:29:18.525Z,996.59
2023-05-14T10:30:18.503Z,996.57
2023-05-14T10:31:18.586Z,996.53
2023-05-14T10:32:18.513Z,996.54
2023-05-14T10:33:18.502Z,996.55
2023-05-14T10:34:18.468Z,996.52
2023-05-14T10:35:18.481Z,996.46
2023-05-14T10:36:18.477Z,996.45
2023-05-14T10:37:18.446Z,996.40
2023-05-14T10:38:18.426Z,996.49
2023-05-14T10:39:18.424Z,996.48
2023-05-14T10:40:18.438Z,996.47
2023-05-14T10:41:18.413Z,996.49
2023-05-14T10:42:18.385Z,996.46
2023-05-14T10:43:18.378Z,996.43
2023-05-14T10:44:18.376Z,996.39
2023-05-14T10:45:18.388Z,996.35
2023-05-14T10:46:18.395Z,996.36
2023-05-14T10:47:18.350Z,996.38
2023-05-14T10:48:18.366Z,996.37
2023-05-14T10:49:28.902Z,996.33
2023-05-14T10:50:19.353Z,996.32
2023-05-14T10:51:18.304Z,996.31
2023-05-14T10:52:18.288Z,996.34
2023-05-14T10:53:18.272Z,996.32
2023-05-14T10:54:18.253Z,996.30
2023-05-14T10:55:18.266Z,996.26
2023-05-14T10:56:18.231Z,996.27
2023-05-14T10:57:18.226Z,996.19
2023-05-14T10:58:18.217Z,996.20
2023-05-14T10:59:18.240Z,996.21
2023-05-14T11:00:18.207Z,996.22
2023-05-14T11:01:18.198Z,996.22
2023-05-14T11:02:18.172Z,996.21
2023-05-14T11:03:18.210Z,996.19
2023-05-14T11:04:18.246Z,996.17
2023-05-14T11:05:18.146Z,996.16
2023-05-14T11:06:18.130Z,996.13
2023-05-14T11:07:18.120Z,996.13
2023-05-14T11:08:18.110Z,996.11
2023-05-14T11:09:18.139Z,996.08
2023-05-14T11:10:18.168Z,996.09
2023-05-14T11:11:18.087Z,996.07
2023-05-14T11:12:18.072Z,996.08
2023-05-14T11:13:18.083Z,996.04
2023-05-14T11:14:18.063Z,996.06
2023-05-14T11:15:18.041Z,996.03
2023-05-14T11:16:23.190Z,996.05
2023-05-14T11:17:19.062Z,996.01
2023-05-14T11:18:18.028Z,996.01
2023-05-14T11:19:18.092Z,996.01
2023-05-14T11:20:18.127Z,995.99
2023-05-14T11:21:18.004Z,995.99
2023-05-14T11:22:17.991Z,996.00
2023-05-14T11:23:17.977Z,995.91
2023-05-14T11:24:17.941Z,995.94
2023-05-14T11:25:17.948Z,995.92
2023-05-14T11:26:20.791Z,995.93
2023-05-14T11:27:17.941Z,995.96
2023-05-14T11:28:17.921Z,995.93
2023-05-14T11:29:17.906Z,995.90
2023-05-14T11:30:18.030Z,995.91
2023-05-14T11:31:17.981Z,995.94
2023-05-14T11:32:17.882Z,995.89
2023-05-14T11:33:17.917Z,995.88
2023-05-14T11:34:17.844Z,995.90
2023-05-14T11:35:17.866Z,995.86
2023-05-14T11:36:17.836Z,995.81
2023-05-14T11:37:17.845Z,995.80
2023-05-14T11:38:17.798Z,995.83
2023-05-14T11:39:17.797Z,995.74
2023-05-14T11:40:17.902Z,995.73
2023-05-14T11:41:17.791Z,995.74
2023-05-14T11:42:17.777Z,995.72
2023-05-14T11:43:17.754Z,995.73
2023-05-14T11:44:17.741Z,995.77
2023-05-14T11:45:17.734Z,995.73
2023-05-14T11:46:17.783Z,995.67
2023-05-14T11:47:17.714Z,995.61
2023-05-14T11:48:17.693Z,995.62
2023-05-14T11:49:17.693Z,995.56
2023-05-14T11:50:17.694Z,995.48
2023-05-14T11:51:17.685Z,995.53
2023-05-14T11:52:17.659Z,995.55
2023-05-14T11:53:17.649Z,995.54
2023-05-14T11:54:17.634Z,995.53
2023-05-14T11:55:17.673Z,995.56
2023-05-14T11:56:17.624Z,995.49
2023-05-14T11:57:17.605Z,995.54
2023-05-14T11:58:17.586Z,995.54
2023-05-14T11:59:17.588Z,995.46
2023-05-14T12:00:17.585Z,995.48
2023-05-14T12:01:17.564Z,995.48
2023-05-14T12:02:17.613Z,995.39
2023-05-14T12:03:17.691Z,995.37
2023-05-14T12:04:17.573Z,995.43
2023-05-14T12:05:17.549Z,995.44
2023-05-14T12:06:17.501Z,995.43
2023-05-14T12:07:17.523Z,995.43
2023-05-14T12:08:17.485Z,995.36
2023-05-14T12:09:17.502Z,995.35
2023-05-14T12:10:17.499Z,995.28
2023-05-14T12:11:17.457Z,995.25
2023-05-14T12:12:17.441Z,995.28
2023-05-14T12:13:17.464Z,995.20
2023-05-14T12:14:17.453Z,995.21
2023-05-14T12:15:17.431Z,995.21
2023-05-14T12:16:17.415Z,995.26
2023-05-14T12:17:17.435Z,995.22
2023-05-14T12:18:24.572Z,995.24
2023-05-14T12:19:18.409Z,995.22
2023-05-14T12:20:17.364Z,995.22
2023-05-14T12:21:17.381Z,995.20
2023-05-14T12:22:17.357Z,995.26
2023-05-14T12:23:17.372Z,995.23
2023-05-14T12:24:17.346Z,995.21
2023-05-14T12:25:17.324Z,995.21
2023-05-14T12:26:17.297Z,995.23
2023-05-14T12:27:17.294Z,995.25
2023-05-14T12:28:17.299Z,995.27